sensor_id;sensor_type;location;lat;lon;timestamp;temperature;humidity
13798;DHT22;6970;51.340;3.240;2023-05-10T00:00:51;13.00;99.90
13798;DHT22;6970;51.340;3.240;2023-05-10T00:03:18;13.00;99.90
13798;DHT22;6970;51.340;3.240;2023-05-10T00:05:47;13.00;99.90
13798;DHT22;6970;51.340;3.240;2023-05-10T00:08:14;13.00;99.90
13798;DHT22;6970;51.340;3.240;2023-05-10T00:10:44;13.00;99.90
13798;DHT22;6970;51.340;3.240;2023-05-10T00:13:17;13.00;99.90
13798;DHT22;6970;51.340;3.240;2023-05-10T00:15:46;13.00;99.90
13798;DHT22;6970;51.340;3.240;2023-05-10T00:18:17;13.00;99.90
13798;DHT22;6970;51.340;3.240;2023-05-10T00:20:47;13.00;99.90
13798;DHT22;6970;51.340;3.240;2023-05-10T00:23:18;13.10;99.90
13798;DHT22;6970;51.340;3.240;2023-05-10T00:25:46;13.00;99.90
13798;DHT22;6970;51.340;3.240;2023-05-10T00:28:16;13.00;99.90
13798;DHT22;6970;51.340;3.240;2023-05-10T00:30:46;13.00;99.90
13798;DHT22;6970;51.340;3.240;2023-05-10T00:33:16;13.00;99.90
13798;DHT22;6970;51.340;3.240;2023-05-10T00:35:47;13.00;99.90
13798;DHT22;6970;51.340;3.240;2023-05-10T00:38:14;13.00;99.90
13798;DHT22;6970;51.340;3.240;2023-05-10T00:40:41;13.00;99.90
13798;DHT22;6970;51.340;3.240;2023-05-10T00:43:08;13.00;99.90
13798;DHT22;6970;51.340;3.240;2023-05-10T00:45:39;13.00;99.90
13798;DHT22;6970;51.340;3.240;2023-05-10T00:48:06;13.00;99.90
13798;DHT22;6970;51.340;3.240;2023-05-10T00:50:34;13.10;99.90
13798;DHT22;6970;51.340;3.240;2023-05-10T00:53:04;13.10;99.90
13798;DHT22;6970;51.340;3.240;2023-05-10T00:55:32;13.10;99.90
13798;DHT22;6970;51.340;3.240;2023-05-10T00:57:59;13.10;99.90
13798;DHT22;6970;51.340;3.240;2023-05-10T01:00:29;13.10;99.90
13798;DHT22;6970;51.340;3.240;2023-05-10T01:02:58;13.10;99.90
13798;DHT22;6970;51.340;3.240;2023-05-10T01:05:28;13.10;99.90
13798;DHT22;6970;51.340;3.240;2023-05-10T01:07:59;13.20;99.90
13798;DHT22;6970;51.340;3.240;2023-05-10T01:10:26;13.10;99.90
13798;DHT22;6970;51.340;3.240;2023-05-10T01:12:53;13.10;99.90
13798;DHT22;6970;51.340;3.240;2023-05-10T01:15:21;13.10;99.90
13798;DHT22;6970;51.340;3.240;2023-05-10T01:17:49;13.10;99.90
13798;DHT22;6970;51.340;3.240;2023-05-10T01:20:17;13.20;99.90
13798;DHT22;6970;51.340;3.240;2023-05-10T01:26:01;13.20;99.90
13798;DHT22;6970;51.340;3.240;2023-05-10T01:34:13;13.10;99.90
13798;DHT22;6970;51.340;3.240;2023-05-10T01:36:52;13.20;99.90
13798;DHT22;6970;51.340;3.240;2023-05-10T01:42:26;13.20;99.90
13798;DHT22;6970;51.340;3.240;2023-05-10T01:45:07;13.20;99.90
13798;DHT22;6970;51.340;3.240;2023-05-10T01:47:42;13.20;99.90
13798;DHT22;6970;51.340;3.240;2023-05-10T01:50:17;13.20;99.90
13798;DHT22;6970;51.340;3.240;2023-05-10T01:52:50;13.20;99.90
13798;DHT22;6970;51.340;3.240;2023-05-10T01:55:20;13.20;99.90
13798;DHT22;6970;51.340;3.240;2023-05-10T01:57:52;13.20;99.90
13798;DHT22;6970;51.340;3.240;2023-05-10T02:00:22;13.20;99.90
13798;DHT22;6970;51.340;3.240;2023-05-10T02:02:53;13.20;99.90
13798;DHT22;6970;51.340;3.240;2023-05-10T02:05:21;13.30;99.90
13798;DHT22;6970;51.340;3.240;2023-05-10T02:07:52;13.30;99.90
13798;DHT22;6970;51.340;3.240;2023-05-10T02:10:21;13.30;99.90
13798;DHT22;6970;51.340;3.240;2023-05-10T02:12:51;13.30;99.90
13798;DHT22;6970;51.340;3.240;2023-05-10T02:15:23;13.20;99.90
13798;DHT22;6970;51.340;3.240;2023-05-10T02:17:55;13.30;99.90
13798;DHT22;6970;51.340;3.240;2023-05-10T02:20:27;13.20;99.90
13798;DHT22;6970;51.340;3.240;2023-05-10T02:22:57;13.30;99.90
13798;DHT22;6970;51.340;3.240;2023-05-10T02:25:25;13.20;99.90
13798;DHT22;6970;51.340;3.240;2023-05-10T02:27:55;13.20;99.90
13798;DHT22;6970;51.340;3.240;2023-05-10T02:30:26;13.20;99.90
13798;DHT22;6970;51.340;3.240;2023-05-10T02:32:56;13.10;99.90
13798;DHT22;6970;51.340;3.240;2023-05-10T02:35:32;13.10;99.90
13798;DHT22;6970;51.340;3.240;2023-05-10T02:38:04;13.10;99.90
13798;DHT22;6970;51.340;3.240;2023-05-10T02:40:34;13.10;99.90
13798;DHT22;6970;51.340;3.240;2023-05-10T02:43:05;13.10;99.90
13798;DHT22;6970;51.340;3.240;2023-05-10T02:45:36;13.00;99.90
13798;DHT22;6970;51.340;3.240;2023-05-10T02:48:07;13.00;99.90
13798;DHT22;6970;51.340;3.240;2023-05-10T02:50:37;13.00;99.90
13798;DHT22;6970;51.340;3.240;2023-05-10T02:53:21;13.00;99.90
13798;DHT22;6970;51.340;3.240;2023-05-10T02:55:51;12.90;99.90
13798;DHT22;6970;51.340;3.240;2023-05-10T02:58:19;12.80;99.90
13798;DHT22;6970;51.340;3.240;2023-05-10T03:00:49;12.80;99.90
13798;DHT22;6970;51.340;3.240;2023-05-10T03:03:17;12.80;99.90
13798;DHT22;6970;51.340;3.240;2023-05-10T03:05:44;12.80;99.90
13798;DHT22;6970;51.340;3.240;2023-05-10T03:08:11;12.80;99.90
13798;DHT22;6970;51.340;3.240;2023-05-10T03:13:44;12.90;99.90
13798;DHT22;6970;51.340;3.240;2023-05-10T03:16:18;12.80;99.90
13798;DHT22;6970;51.340;3.240;2023-05-10T03:19:05;12.80;99.90
13798;DHT22;6970;51.340;3.240;2023-05-10T03:21:36;12.80;99.90
13798;DHT22;6970;51.340;3.240;2023-05-10T03:24:15;12.80;99.90
13798;DHT22;6970;51.340;3.240;2023-05-10T03:26:49;12.80;99.90
13798;DHT22;6970;51.340;3.240;2023-05-10T03:29:25;12.80;99.90
13798;DHT22;6970;51.340;3.240;2023-05-10T03:31:57;12.80;99.90
13798;DHT22;6970;51.340;3.240;2023-05-10T03:34:30;12.80;99.90
13798;DHT22;6970;51.340;3.240;2023-05-10T03:37:00;12.80;99.90
13798;DHT22;6970;51.340;3.240;2023-05-10T03:39:30;12.80;99.90
13798;DHT22;6970;51.340;3.240;2023-05-10T03:41:57;12.80;99.90
13798;DHT22;6970;51.340;3.240;2023-05-10T03:44:26;12.80;99.90
13798;DHT22;6970;51.340;3.240;2023-05-10T03:46:57;12.90;99.90
13798;DHT22;6970;51.340;3.240;2023-05-10T03:49:24;12.90;99.90
13798;DHT22;6970;51.340;3.240;2023-05-10T03:51:52;12.90;99.90
13798;DHT22;6970;51.340;3.240;2023-05-10T03:54:21;12.90;99.90
13798;DHT22;6970;51.340;3.240;2023-05-10T03:56:49;12.90;99.90
13798;DHT22;6970;51.340;3.240;2023-05-10T03:59:19;13.00;99.90
13798;DHT22;6970;51.340;3.240;2023-05-10T04:01:48;13.00;99.90
13798;DHT22;6970;51.340;3.240;2023-05-10T04:04:17;13.00;99.90
13798;DHT22;6970;51.340;3.240;2023-05-10T04:06:49;12.90;99.90
13798;DHT22;6970;51.340;3.240;2023-05-10T04:09:18;13.00;99.90
13798;DHT22;6970;51.340;3.240;2023-05-10T04:11:45;13.00;99.90
13798;DHT22;6970;51.340;3.240;2023-05-10T04:14:13;13.10;99.90
13798;DHT22;6970;51.340;3.240;2023-05-10T04:16:40;13.00;99.90
13798;DHT22;6970;51.340;3.240;2023-05-10T04:19:09;13.00;99.90
13798;DHT22;6970;51.340;3.240;2023-05-10T04:21:36;13.00;99.90
13798;DHT22;6970;51.340;3.240;2023-05-10T04:24:03;13.10;99.90
13798;DHT22;6970;51.340;3.240;2023-05-10T04:26:33;13.00;99.90
13798;DHT22;6970;51.340;3.240;2023-05-10T04:29:01;13.00;99.90
13798;DHT22;6970;51.340;3.240;2023-05-10T04:31:29;13.00;99.90
13798;DHT22;6970;51.340;3.240;2023-05-10T04:33:57;13.00;99.90
13798;DHT22;6970;51.340;3.240;2023-05-10T04:36:24;13.10;99.90
13798;DHT22;6970;51.340;3.240;2023-05-10T04:38:53;13.20;99.90
13798;DHT22;6970;51.340;3.240;2023-05-10T04:41:23;13.20;99.90
13798;DHT22;6970;51.340;3.240;2023-05-10T04:43:52;13.10;99.90
13798;DHT22;6970;51.340;3.240;2023-05-10T04:46:20;13.10;99.90
13798;DHT22;6970;51.340;3.240;2023-05-10T04:48:48;13.20;99.90
13798;DHT22;6970;51.340;3.240;2023-05-10T04:51:17;13.20;99.90
13798;DHT22;6970;51.340;3.240;2023-05-10T04:53:47;13.20;99.90
13798;DHT22;6970;51.340;3.240;2023-05-10T04:56:33;13.30;99.90
13798;DHT22;6970;51.340;3.240;2023-05-10T04:59:03;13.40;99.90
13798;DHT22;6970;51.340;3.240;2023-05-10T05:01:33;13.40;99.90
13798;DHT22;6970;51.340;3.240;2023-05-10T05:04:01;13.50;99.90
13798;DHT22;6970;51.340;3.240;2023-05-10T05:06:30;13.50;99.90
13798;DHT22;6970;51.340;3.240;2023-05-10T05:08:57;13.50;99.90
13798;DHT22;6970;51.340;3.240;2023-05-10T05:11:25;13.60;99.90
13798;DHT22;6970;51.340;3.240;2023-05-10T05:13:52;13.60;99.90
13798;DHT22;6970;51.340;3.240;2023-05-10T05:16:19;13.60;99.90
13798;DHT22;6970;51.340;3.240;2023-05-10T05:18:46;13.60;99.90
13798;DHT22;6970;51.340;3.240;2023-05-10T05:21:18;13.60;99.90
13798;DHT22;6970;51.340;3.240;2023-05-10T05:23:48;13.70;99.90
13798;DHT22;6970;51.340;3.240;2023-05-10T05:26:15;13.70;99.90
13798;DHT22;6970;51.340;3.240;2023-05-10T05:28:45;13.80;99.90
13798;DHT22;6970;51.340;3.240;2023-05-10T05:31:15;13.80;99.90
13798;DHT22;6970;51.340;3.240;2023-05-10T05:33:45;13.90;99.90
13798;DHT22;6970;51.340;3.240;2023-05-10T05:36:15;13.90;99.90
13798;DHT22;6970;51.340;3.240;2023-05-10T05:38:42;13.90;99.90
13798;DHT22;6970;51.340;3.240;2023-05-10T05:41:09;14.00;99.90
13798;DHT22;6970;51.340;3.240;2023-05-10T05:43:39;14.10;99.90
13798;DHT22;6970;51.340;3.240;2023-05-10T05:46:09;14.10;99.90
13798;DHT22;6970;51.340;3.240;2023-05-10T05:48:37;14.20;99.90
13798;DHT22;6970;51.340;3.240;2023-05-10T05:51:04;14.20;99.90
13798;DHT22;6970;51.340;3.240;2023-05-10T05:53:33;14.30;99.90
13798;DHT22;6970;51.340;3.240;2023-05-10T05:56:04;14.30;99.90
13798;DHT22;6970;51.340;3.240;2023-05-10T05:58:34;14.30;99.90
13798;DHT22;6970;51.340;3.240;2023-05-10T06:01:01;14.40;99.90
13798;DHT22;6970;51.340;3.240;2023-05-10T06:03:29;14.50;99.90
13798;DHT22;6970;51.340;3.240;2023-05-10T06:05:56;14.50;99.90
13798;DHT22;6970;51.340;3.240;2023-05-10T06:08:25;14.60;99.90
13798;DHT22;6970;51.340;3.240;2023-05-10T06:10:54;14.60;99.90
13798;DHT22;6970;51.340;3.240;2023-05-10T06:13:22;14.60;99.90
13798;DHT22;6970;51.340;3.240;2023-05-10T06:15:51;14.50;99.90
13798;DHT22;6970;51.340;3.240;2023-05-10T06:18:18;14.50;99.90
13798;DHT22;6970;51.340;3.240;2023-05-10T06:20:47;14.50;99.90
13798;DHT22;6970;51.340;3.240;2023-05-10T06:23:17;14.50;99.90
13798;DHT22;6970;51.340;3.240;2023-05-10T06:25:45;14.40;99.90
13798;DHT22;6970;51.340;3.240;2023-05-10T06:28:12;14.50;99.90
13798;DHT22;6970;51.340;3.240;2023-05-10T06:30:40;14.50;99.90
13798;DHT22;6970;51.340;3.240;2023-05-10T06:33:11;14.50;99.90
13798;DHT22;6970;51.340;3.240;2023-05-10T06:35:40;14.60;99.90
13798;DHT22;6970;51.340;3.240;2023-05-10T06:38:07;14.70;99.90
13798;DHT22;6970;51.340;3.240;2023-05-10T06:40:36;14.70;99.90
13798;DHT22;6970;51.340;3.240;2023-05-10T06:43:06;14.90;99.90
13798;DHT22;6970;51.340;3.240;2023-05-10T06:45:33;15.00;99.90
13798;DHT22;6970;51.340;3.240;2023-05-10T06:48:02;15.10;99.90
13798;DHT22;6970;51.340;3.240;2023-05-10T06:50:30;15.10;99.90
13798;DHT22;6970;51.340;3.240;2023-05-10T06:52:59;15.20;99.90
13798;DHT22;6970;51.340;3.240;2023-05-10T06:55:27;15.20;99.90
13798;DHT22;6970;51.340;3.240;2023-05-10T06:57:55;15.20;99.90
13798;DHT22;6970;51.340;3.240;2023-05-10T07:00:22;15.30;99.90
13798;DHT22;6970;51.340;3.240;2023-05-10T07:02:51;15.40;99.90
13798;DHT22;6970;51.340;3.240;2023-05-10T07:05:21;15.70;99.90
13798;DHT22;6970;51.340;3.240;2023-05-10T07:07:52;15.90;99.90
13798;DHT22;6970;51.340;3.240;2023-05-10T07:10:21;16.10;99.90
13798;DHT22;6970;51.340;3.240;2023-05-10T07:12:48;16.20;99.90
13798;DHT22;6970;51.340;3.240;2023-05-10T07:15:16;16.30;99.90
13798;DHT22;6970;51.340;3.240;2023-05-10T07:17:44;16.50;99.90
13798;DHT22;6970;51.340;3.240;2023-05-10T07:20:13;16.70;99.90
13798;DHT22;6970;51.340;3.240;2023-05-10T07:22:40;16.90;99.90
13798;DHT22;6970;51.340;3.240;2023-05-10T07:25:07;17.00;99.90
13798;DHT22;6970;51.340;3.240;2023-05-10T07:27:37;17.10;99.90
13798;DHT22;6970;51.340;3.240;2023-05-10T07:30:08;17.20;99.90
13798;DHT22;6970;51.340;3.240;2023-05-10T07:32:38;17.70;99.90
13798;DHT22;6970;51.340;3.240;2023-05-10T07:35:09;17.90;99.90
13798;DHT22;6970;51.340;3.240;2023-05-10T07:37:36;18.00;99.90
13798;DHT22;6970;51.340;3.240;2023-05-10T07:40:06;17.80;99.90
13798;DHT22;6970;51.340;3.240;2023-05-10T07:42:37;17.90;99.90
13798;DHT22;6970;51.340;3.240;2023-05-10T07:45:07;17.80;99.90
13798;DHT22;6970;51.340;3.240;2023-05-10T07:47:35;17.80;99.90
13798;DHT22;6970;51.340;3.240;2023-05-10T07:50:04;17.60;99.90
13798;DHT22;6970;51.340;3.240;2023-05-10T07:52:34;17.40;99.90
13798;DHT22;6970;51.340;3.240;2023-05-10T07:55:05;17.40;99.90
13798;DHT22;6970;51.340;3.240;2023-05-10T07:57:34;17.30;99.90
13798;DHT22;6970;51.340;3.240;2023-05-10T08:00:03;17.20;99.90
13798;DHT22;6970;51.340;3.240;2023-05-10T08:02:34;17.20;99.90
13798;DHT22;6970;51.340;3.240;2023-05-10T08:05:03;17.20;99.90
13798;DHT22;6970;51.340;3.240;2023-05-10T08:07:33;17.10;99.90
13798;DHT22;6970;51.340;3.240;2023-05-10T08:10:03;17.20;99.90
13798;DHT22;6970;51.340;3.240;2023-05-10T08:12:33;17.20;99.90
13798;DHT22;6970;51.340;3.240;2023-05-10T08:15:00;17.10;99.90
13798;DHT22;6970;51.340;3.240;2023-05-10T08:17:27;17.10;99.90
13798;DHT22;6970;51.340;3.240;2023-05-10T08:19:57;17.10;99.90
13798;DHT22;6970;51.340;3.240;2023-05-10T08:22:25;17.20;99.90
13798;DHT22;6970;51.340;3.240;2023-05-10T08:24:54;17.20;99.90
13798;DHT22;6970;51.340;3.240;2023-05-10T08:27:24;17.30;99.90
13798;DHT22;6970;51.340;3.240;2023-05-10T08:29:54;17.20;99.90
13798;DHT22;6970;51.340;3.240;2023-05-10T08:32:22;17.20;99.90
13798;DHT22;6970;51.340;3.240;2023-05-10T08:34:51;17.20;99.90
13798;DHT22;6970;51.340;3.240;2023-05-10T08:37:22;17.20;99.90
13798;DHT22;6970;51.340;3.240;2023-05-10T08:39:50;17.30;99.90
13798;DHT22;6970;51.340;3.240;2023-05-10T08:42:22;17.20;99.90
13798;DHT22;6970;51.340;3.240;2023-05-10T08:44:54;17.20;99.90
13798;DHT22;6970;51.340;3.240;2023-05-10T08:47:21;17.20;99.90
13798;DHT22;6970;51.340;3.240;2023-05-10T08:49:51;17.10;99.90
13798;DHT22;6970;51.340;3.240;2023-05-10T08:52:21;17.00;99.90
13798;DHT22;6970;51.340;3.240;2023-05-10T08:54:48;16.80;99.90
13798;DHT22;6970;51.340;3.240;2023-05-10T08:57:19;16.70;99.90
13798;DHT22;6970;51.340;3.240;2023-05-10T08:59:46;16.60;99.90
13798;DHT22;6970;51.340;3.240;2023-05-10T09:02:21;16.60;99.90
13798;DHT22;6970;51.340;3.240;2023-05-10T09:04:50;16.60;99.90
13798;DHT22;6970;51.340;3.240;2023-05-10T09:07:21;16.70;99.90
13798;DHT22;6970;51.340;3.240;2023-05-10T09:09:50;16.80;99.90
13798;DHT22;6970;51.340;3.240;2023-05-10T09:12:17;16.90;99.90
13798;DHT22;6970;51.340;3.240;2023-05-10T09:14:45;17.00;99.90
13798;DHT22;6970;51.340;3.240;2023-05-10T09:17:13;17.00;99.90
13798;DHT22;6970;51.340;3.240;2023-05-10T09:19:40;17.00;99.90
13798;DHT22;6970;51.340;3.240;2023-05-10T09:22:10;17.00;99.90
13798;DHT22;6970;51.340;3.240;2023-05-10T09:24:39;17.00;99.90
13798;DHT22;6970;51.340;3.240;2023-05-10T09:27:14;17.00;99.90
13798;DHT22;6970;51.340;3.240;2023-05-10T09:29:44;17.00;99.90
13798;DHT22;6970;51.340;3.240;2023-05-10T09:32:14;17.10;99.90
13798;DHT22;6970;51.340;3.240;2023-05-10T09:34:44;17.10;99.90
13798;DHT22;6970;51.340;3.240;2023-05-10T09:37:13;17.10;99.90
13798;DHT22;6970;51.340;3.240;2023-05-10T09:39:44;17.10;99.90
13798;DHT22;6970;51.340;3.240;2023-05-10T09:42:12;17.20;99.90
13798;DHT22;6970;51.340;3.240;2023-05-10T09:44:42;17.30;99.90
13798;DHT22;6970;51.340;3.240;2023-05-10T09:47:10;17.30;99.90
13798;DHT22;6970;51.340;3.240;2023-05-10T09:49:41;17.50;99.90
13798;DHT22;6970;51.340;3.240;2023-05-10T09:52:11;17.50;99.90
13798;DHT22;6970;51.340;3.240;2023-05-10T09:54:52;17.60;99.90
13798;DHT22;6970;51.340;3.240;2023-05-10T09:57:25;17.70;99.90
13798;DHT22;6970;51.340;3.240;2023-05-10T09:59:53;17.70;99.90
13798;DHT22;6970;51.340;3.240;2023-05-10T10:02:21;17.70;99.90
13798;DHT22;6970;51.340;3.240;2023-05-10T10:04:55;17.70;99.90
13798;DHT22;6970;51.340;3.240;2023-05-10T10:07:23;17.60;99.90
13798;DHT22;6970;51.340;3.240;2023-05-10T10:09:55;17.50;99.90
13798;DHT22;6970;51.340;3.240;2023-05-10T10:12:28;17.50;99.90
13798;DHT22;6970;51.340;3.240;2023-05-10T10:14:57;17.50;99.90
13798;DHT22;6970;51.340;3.240;2023-05-10T10:17:27;17.40;99.90
13798;DHT22;6970;51.340;3.240;2023-05-10T10:19:55;17.40;99.90
13798;DHT22;6970;51.340;3.240;2023-05-10T10:22:25;17.30;99.90
13798;DHT22;6970;51.340;3.240;2023-05-10T10:24:55;17.30;99.90
13798;DHT22;6970;51.340;3.240;2023-05-10T10:35:44;17.70;99.90
13798;DHT22;6970;51.340;3.240;2023-05-10T10:38:21;18.00;99.90
13798;DHT22;6970;51.340;3.240;2023-05-10T10:41:11;18.20;99.90
13798;DHT22;6970;51.340;3.240;2023-05-10T10:44:33;18.10;99.90
13798;DHT22;6970;51.340;3.240;2023-05-10T10:50:06;18.20;99.90
13798;DHT22;6970;51.340;3.240;2023-05-10T10:52:44;18.30;99.90
13798;DHT22;6970;51.340;3.240;2023-05-10T10:55:19;18.50;99.90
13798;DHT22;6970;51.340;3.240;2023-05-10T11:00:23;18.70;99.90
13798;DHT22;6970;51.340;3.240;2023-05-10T11:03:04;18.80;99.90
13798;DHT22;6970;51.340;3.240;2023-05-10T11:05:35;18.80;99.90
13798;DHT22;6970;51.340;3.240;2023-05-10T11:13:46;18.70;99.90
13798;DHT22;6970;51.340;3.240;2023-05-10T11:16:24;18.70;99.90
13798;DHT22;6970;51.340;3.240;2023-05-10T11:19:02;18.70;99.90
13798;DHT22;6970;51.340;3.240;2023-05-10T11:21:32;18.60;99.90
13798;DHT22;6970;51.340;3.240;2023-05-10T11:24:13;18.40;99.90
13798;DHT22;6970;51.340;3.240;2023-05-10T11:26:43;18.20;99.90
13798;DHT22;6970;51.340;3.240;2023-05-10T11:29:16;18.10;99.90
13798;DHT22;6970;51.340;3.240;2023-05-10T11:31:47;18.00;99.90
13798;DHT22;6970;51.340;3.240;2023-05-10T11:34:29;17.90;99.90
13798;DHT22;6970;51.340;3.240;2023-05-10T11:36:58;17.80;99.90
13798;DHT22;6970;51.340;3.240;2023-05-10T11:39:34;17.80;99.90
13798;DHT22;6970;51.340;3.240;2023-05-10T11:42:01;17.80;99.90
13798;DHT22;6970;51.340;3.240;2023-05-10T11:44:33;17.80;99.90
13798;DHT22;6970;51.340;3.240;2023-05-10T11:47:02;18.00;99.90
13798;DHT22;6970;51.340;3.240;2023-05-10T11:49:33;18.00;99.90
13798;DHT22;6970;51.340;3.240;2023-05-10T11:52:08;18.10;99.90
13798;DHT22;6970;51.340;3.240;2023-05-10T11:54:37;18.30;99.90
13798;DHT22;6970;51.340;3.240;2023-05-10T11:57:04;18.30;99.90
13798;DHT22;6970;51.340;3.240;2023-05-10T11:59:33;18.30;99.90
13798;DHT22;6970;51.340;3.240;2023-05-10T12:02:01;18.40;99.90
13798;DHT22;6970;51.340;3.240;2023-05-10T12:04:31;18.30;99.90
13798;DHT22;6970;51.340;3.240;2023-05-10T12:07:00;18.30;99.90
13798;DHT22;6970;51.340;3.240;2023-05-10T12:09:30;18.20;99.90
13798;DHT22;6970;51.340;3.240;2023-05-10T12:12:20;18.30;99.90
13798;DHT22;6970;51.340;3.240;2023-05-10T12:14:50;18.40;99.90
13798;DHT22;6970;51.340;3.240;2023-05-10T12:17:17;18.50;99.90
13798;DHT22;6970;51.340;3.240;2023-05-10T12:19:45;18.50;99.90
13798;DHT22;6970;51.340;3.240;2023-05-10T12:22:14;18.50;99.90
13798;DHT22;6970;51.340;3.240;2023-05-10T12:24:41;18.40;99.90
13798;DHT22;6970;51.340;3.240;2023-05-10T12:27:08;18.60;99.90
13798;DHT22;6970;51.340;3.240;2023-05-10T12:29:41;18.70;99.90
13798;DHT22;6970;51.340;3.240;2023-05-10T12:32:11;19.10;99.90
13798;DHT22;6970;51.340;3.240;2023-05-10T12:34:40;19.10;99.90
13798;DHT22;6970;51.340;3.240;2023-05-10T12:37:07;19.50;99.90
13798;DHT22;6970;51.340;3.240;2023-05-10T12:39:44;19.70;99.90
13798;DHT22;6970;51.340;3.240;2023-05-10T12:42:15;20.10;99.90
13798;DHT22;6970;51.340;3.240;2023-05-10T12:44:46;20.50;99.90
13798;DHT22;6970;51.340;3.240;2023-05-10T12:47:13;20.70;99.90
13798;DHT22;6970;51.340;3.240;2023-05-10T12:49:41;20.80;99.90
13798;DHT22;6970;51.340;3.240;2023-05-10T12:52:08;20.70;99.90
13798;DHT22;6970;51.340;3.240;2023-05-10T12:54:37;20.80;99.90
13798;DHT22;6970;51.340;3.240;2023-05-10T12:57:07;21.00;99.90
13798;DHT22;6970;51.340;3.240;2023-05-10T12:59:35;21.10;99.90
13798;DHT22;6970;51.340;3.240;2023-05-10T13:02:08;21.20;99.90
13798;DHT22;6970;51.340;3.240;2023-05-10T13:04:38;21.30;99.90
13798;DHT22;6970;51.340;3.240;2023-05-10T13:07:09;21.40;99.90
13798;DHT22;6970;51.340;3.240;2023-05-10T13:09:38;21.40;99.90
13798;DHT22;6970;51.340;3.240;2023-05-10T13:12:08;21.50;99.90
13798;DHT22;6970;51.340;3.240;2023-05-10T13:14:37;21.40;99.90
13798;DHT22;6970;51.340;3.240;2023-05-10T13:17:10;21.20;99.90
13798;DHT22;6970;51.340;3.240;2023-05-10T13:19:39;21.10;99.90
13798;DHT22;6970;51.340;3.240;2023-05-10T13:22:07;21.00;99.90
13798;DHT22;6970;51.340;3.240;2023-05-10T13:24:34;20.80;99.90
13798;DHT22;6970;51.340;3.240;2023-05-10T13:27:02;20.80;99.90
13798;DHT22;6970;51.340;3.240;2023-05-10T13:29:30;20.90;99.90
13798;DHT22;6970;51.340;3.240;2023-05-10T13:31:59;21.00;99.90
13798;DHT22;6970;51.340;3.240;2023-05-10T13:34:27;21.10;99.90
13798;DHT22;6970;51.340;3.240;2023-05-10T13:36:56;21.00;99.90
13798;DHT22;6970;51.340;3.240;2023-05-10T13:39:24;20.90;99.90
13798;DHT22;6970;51.340;3.240;2023-05-10T13:42:01;20.90;99.90
13798;DHT22;6970;51.340;3.240;2023-05-10T13:44:29;21.10;99.90
13798;DHT22;6970;51.340;3.240;2023-05-10T13:46:59;21.20;99.90
13798;DHT22;6970;51.340;3.240;2023-05-10T13:49:26;21.40;99.90
13798;DHT22;6970;51.340;3.240;2023-05-10T13:51:53;21.70;99.90
13798;DHT22;6970;51.340;3.240;2023-05-10T13:54:26;21.90;99.90
13798;DHT22;6970;51.340;3.240;2023-05-10T13:56:57;22.00;99.90
13798;DHT22;6970;51.340;3.240;2023-05-10T13:59:25;22.10;99.60
13798;DHT22;6970;51.340;3.240;2023-05-10T14:01:53;22.00;99.50
13798;DHT22;6970;51.340;3.240;2023-05-10T14:04:22;22.00;99.40
13798;DHT22;6970;51.340;3.240;2023-05-10T14:06:50;21.80;99.40
13798;DHT22;6970;51.340;3.240;2023-05-10T14:09:21;21.70;99.40
13798;DHT22;6970;51.340;3.240;2023-05-10T14:11:50;21.40;99.70
13798;DHT22;6970;51.340;3.240;2023-05-10T14:14:17;21.20;99.90
13798;DHT22;6970;51.340;3.240;2023-05-10T14:16:45;21.20;99.90
13798;DHT22;6970;51.340;3.240;2023-05-10T14:19:14;21.10;99.90
13798;DHT22;6970;51.340;3.240;2023-05-10T14:21:44;21.00;99.90
13798;DHT22;6970;51.340;3.240;2023-05-10T14:24:11;20.90;99.90
13798;DHT22;6970;51.340;3.240;2023-05-10T14:26:41;20.90;99.90
13798;DHT22;6970;51.340;3.240;2023-05-10T14:29:10;20.80;99.90
13798;DHT22;6970;51.340;3.240;2023-05-10T14:31:38;21.00;99.90
13798;DHT22;6970;51.340;3.240;2023-05-10T14:34:07;20.90;99.90
13798;DHT22;6970;51.340;3.240;2023-05-10T14:36:35;20.90;99.90
13798;DHT22;6970;51.340;3.240;2023-05-10T14:39:02;20.80;99.90
13798;DHT22;6970;51.340;3.240;2023-05-10T14:41:30;20.80;99.90
13798;DHT22;6970;51.340;3.240;2023-05-10T14:43:57;20.70;99.70
13798;DHT22;6970;51.340;3.240;2023-05-10T14:46:24;20.60;99.90
13798;DHT22;6970;51.340;3.240;2023-05-10T14:48:52;20.60;99.90
13798;DHT22;6970;51.340;3.240;2023-05-10T14:51:22;20.70;99.90
13798;DHT22;6970;51.340;3.240;2023-05-10T14:53:52;20.60;99.90
13798;DHT22;6970;51.340;3.240;2023-05-10T14:56:20;20.60;99.90
13798;DHT22;6970;51.340;3.240;2023-05-10T14:58:51;20.50;99.90
13798;DHT22;6970;51.340;3.240;2023-05-10T15:01:21;20.30;99.90
13798;DHT22;6970;51.340;3.240;2023-05-10T15:03:49;20.30;99.90
13798;DHT22;6970;51.340;3.240;2023-05-10T15:06:23;20.30;99.90
13798;DHT22;6970;51.340;3.240;2023-05-10T15:08:55;20.30;99.90
13798;DHT22;6970;51.340;3.240;2023-05-10T15:11:22;20.30;99.90
13798;DHT22;6970;51.340;3.240;2023-05-10T15:13:52;20.30;99.90
13798;DHT22;6970;51.340;3.240;2023-05-10T15:16:20;20.30;99.90
13798;DHT22;6970;51.340;3.240;2023-05-10T15:18:48;20.20;99.90
13798;DHT22;6970;51.340;3.240;2023-05-10T15:21:15;20.20;99.90
13798;DHT22;6970;51.340;3.240;2023-05-10T15:23:44;20.00;99.90
13798;DHT22;6970;51.340;3.240;2023-05-10T15:26:12;20.00;99.90
13798;DHT22;6970;51.340;3.240;2023-05-10T15:28:40;19.80;99.90
13798;DHT22;6970;51.340;3.240;2023-05-10T15:31:07;19.70;99.90
13798;DHT22;6970;51.340;3.240;2023-05-10T15:33:37;19.70;99.90
13798;DHT22;6970;51.340;3.240;2023-05-10T15:36:14;19.60;99.90
13798;DHT22;6970;51.340;3.240;2023-05-10T15:38:42;19.70;99.90
13798;DHT22;6970;51.340;3.240;2023-05-10T15:41:12;19.70;99.90
13798;DHT22;6970;51.340;3.240;2023-05-10T15:43:42;19.70;99.90
13798;DHT22;6970;51.340;3.240;2023-05-10T15:46:09;19.80;99.90
13798;DHT22;6970;51.340;3.240;2023-05-10T15:48:37;19.80;99.90
13798;DHT22;6970;51.340;3.240;2023-05-10T15:51:07;19.60;99.90
13798;DHT22;6970;51.340;3.240;2023-05-10T15:53:35;19.50;99.90
13798;DHT22;6970;51.340;3.240;2023-05-10T15:56:05;19.60;99.90
13798;DHT22;6970;51.340;3.240;2023-05-10T15:58:34;19.70;99.90
13798;DHT22;6970;51.340;3.240;2023-05-10T16:01:05;19.60;99.90
13798;DHT22;6970;51.340;3.240;2023-05-10T16:03:33;19.60;99.90
13798;DHT22;6970;51.340;3.240;2023-05-10T16:06:06;19.60;99.90
13798;DHT22;6970;51.340;3.240;2023-05-10T16:08:34;19.50;99.90
13798;DHT22;6970;51.340;3.240;2023-05-10T16:11:04;19.50;99.90
13798;DHT22;6970;51.340;3.240;2023-05-10T16:13:35;19.60;99.90
13798;DHT22;6970;51.340;3.240;2023-05-10T16:16:05;19.50;99.90
13798;DHT22;6970;51.340;3.240;2023-05-10T16:18:35;19.40;99.90
13798;DHT22;6970;51.340;3.240;2023-05-10T16:21:03;19.40;99.90
13798;DHT22;6970;51.340;3.240;2023-05-10T16:23:32;19.30;99.90
13798;DHT22;6970;51.340;3.240;2023-05-10T16:26:00;19.30;99.90
13798;DHT22;6970;51.340;3.240;2023-05-10T16:28:30;19.40;99.90
13798;DHT22;6970;51.340;3.240;2023-05-10T16:31:00;19.30;99.90
13798;DHT22;6970;51.340;3.240;2023-05-10T16:33:27;19.30;99.90
13798;DHT22;6970;51.340;3.240;2023-05-10T16:35:57;19.30;99.90